Time;durP1;ratioP1;P1;durP2;ratioP2;P2;SDS_P1;SDS_P2;PMS_P1;PMS_P2;Temp;Humidity;BMP_temperature;BMP_pressure;BME280_temperature;BME280_humidity;BME280_pressure;Samples;Min_cycle;Max_cycle;Signal;HPM_P1;HPM_P2
2022/03/08 00:02:05;;;;;;;29.75;18.08;;;;;;;-3.79;100.00;96941.72;5047325;28;20558;-57
2022/03/08 00:04:33;;;;;;;29.55;17.25;;;;;;;-3.71;100.00;96940.63;5046704;28;20439;-59
2022/03/08 00:07:02;;;;;;;26.33;17.02;;;;;;;-3.66;100.00;96940.47;5045381;28;20450;-56
2022/03/08 00:09:30;;;;;;;30.77;18.58;;;;;;;-3.61;100.00;96949.75;5048142;28;20428;-59
2022/03/08 00:11:59;;;;;;;29.17;18.38;;;;;;;-3.59;100.00;96937.66;5045243;28;20072;-59
2022/03/08 00:14:27;;;;;;;26.15;17.13;;;;;;;-3.54;100.00;96942.69;5046706;28;20446;-59
2022/03/08 00:16:57;;;;;;;27.80;18.00;;;;;;;-3.53;100.00;96931.47;5047165;28;20068;-58
2022/03/08 00:19:25;;;;;;;29.05;16.80;;;;;;;-3.50;100.00;96940.88;5046025;28;20061;-58
2022/03/08 00:21:53;;;;;;;26.40;16.92;;;;;;;-3.49;100.00;96935.66;5047225;28;20069;-59
2022/03/08 00:24:21;;;;;;;25.42;17.23;;;;;;;-3.44;100.00;96928.63;5045155;28;20061;-58
2022/03/08 00:26:50;;;;;;;29.27;18.30;;;;;;;-3.46;100.00;96924.41;5047578;28;20530;-60
2022/03/08 00:29:18;;;;;;;29.05;17.35;;;;;;;-3.46;100.00;96927.81;5046176;28;20076;-59
2022/03/08 00:31:46;;;;;;;28.35;17.25;;;;;;;-3.47;100.00;96920.16;5045142;28;20084;-59
2022/03/08 00:34:16;;;;;;;28.70;18.52;;;;;;;-3.41;100.00;96923.34;5047294;28;20088;-57
2022/03/08 00:36:44;;;;;;;29.50;18.17;;;;;;;-3.45;100.00;96924.34;5047278;28;20067;-56
2022/03/08 00:39:13;;;;;;;28.58;17.92;;;;;;;-3.48;100.00;96923.59;5045738;28;20602;-58
2022/03/08 00:41:42;;;;;;;28.98;17.35;;;;;;;-3.43;100.00;96927.72;5047265;28;20464;-58
2022/03/08 00:44:10;;;;;;;28.65;17.98;;;;;;;-3.50;100.00;96918.50;5058936;28;20084;-58
2022/03/08 00:46:38;;;;;;;20.58;14.57;;;;;;;-3.53;100.00;96920.34;5047747;28;20533;-59
2022/03/08 00:49:07;;;;;;;28.70;18.73;;;;;;;-3.51;100.00;96931.41;5045528;28;20061;-58
2022/03/08 00:51:37;;;;;;;28.45;18.30;;;;;;;-3.52;100.00;96922.00;5043369;28;20060;-59
2022/03/08 00:54:05;;;;;;;25.88;16.90;;;;;;;-3.49;100.00;96919.34;5047630;28;20079;-59
2022/03/08 00:56:33;;;;;;;27.48;16.77;;;;;;;-3.50;100.00;96909.94;5042060;28;20069;-58
2022/03/08 00:59:02;;;;;;;28.58;18.80;;;;;;;-3.48;100.00;96910.72;5044527;28;20526;-52
2022/03/08 01:01:30;;;;;;;28.10;17.13;;;;;;;-3.49;100.00;96907.28;5047151;28;20056;-59
2022/03/08 01:03:59;;;;;;;27.27;17.40;;;;;;;-3.52;100.00;96904.81;5043898;28;20076;-59
2022/03/08 01:06:27;;;;;;;27.58;16.90;;;;;;;-3.50;100.00;96902.19;5046994;28;20068;-56
2022/03/08 01:08:56;;;;;;;29.00;17.73;;;;;;;-3.51;100.00;96905.66;5044228;28;20080;-58
2022/03/08 01:11:25;;;;;;;29.53;17.43;;;;;;;-3.61;100.00;96907.69;5040929;28;20695;-56
2022/03/08 01:13:54;;;;;;;28.80;18.20;;;;;;;-3.59;100.00;96901.56;5047617;28;20088;-58
2022/03/08 01:16:22;;;;;;;32.05;17.23;;;;;;;-3.58;100.00;96892.09;5044099;28;20064;-57
2022/03/08 01:18:50;;;;;;;28.90;16.25;;;;;;;-3.65;100.00;96891.47;5046029;28;20064;-56
2022/03/08 01:21:19;;;;;;;29.00;17.52;;;;;;;-3.57;100.00;96891.22;5044874;28;20071;-54
2022/03/08 01:23:47;;;;;;;29.42;19.00;;;;;;;-3.64;100.00;96892.31;5043833;28;20075;-55
2022/03/08 01:26:17;;;;;;;27.05;17.38;;;;;;;-3.53;100.00;96902.28;5046131;28;20076;-56
2022/03/08 01:28:45;;;;;;;28.40;18.10;;;;;;;-3.55;100.00;96899.75;5044169;28;20526;-56
2022/03/08 01:31:13;;;;;;;32.67;19.33;;;;;;;-3.66;100.00;96889.78;5044912;28;20819;-58
2022/03/08 01:33:42;;;;;;;29.95;17.75;;;;;;;-3.71;100.00;96895.97;5045646;28;20450;-58
2022/03/08 01:36:10;;;;;;;21.88;13.73;;;;;;;-3.76;100.00;96898.69;5043875;28;20064;-55
2022/03/08 01:38:39;;;;;;;27.23;16.65;;;;;;;-3.73;100.00;96888.28;5045871;28;20075;-56
2022/03/08 01:41:07;;;;;;;26.92;17.55;;;;;;;-3.69;100.00;96889.03;5045164;28;20080;-58
2022/03/08 01:43:36;;;;;;;28.05;17.50;;;;;;;-3.76;100.00;96884.94;5046092;28;20072;-58
2022/03/08 01:46:05;;;;;;;28.60;18.67;;;;;;;-3.74;100.00;96878.88;5046323;28;21168;-53
2022/03/08 01:48:34;;;;;;;31.60;18.70;;;;;;;-3.77;100.00;96883.28;5041965;28;20065;-58
2022/03/08 01:51:02;;;;;;;28.98;17.90;;;;;;;-3.77;100.00;96884.13;5046162;28;20073;-58
2022/03/08 01:53:31;;;;;;;28.00;16.70;;;;;;;-3.71;100.00;96878.78;5045639;28;20072;-59
2022/03/08 01:55:59;;;;;;;29.55;16.30;;;;;;;-3.82;100.00;96878.25;5045026;28;20515;-58
2022/03/08 01:58:28;;;;;;;29.02;17.35;;;;;;;-3.85;100.00;96874.06;5046010;28;20124;-59
2022/03/08 02:00:58;;;;;;;30.00;17.85;;;;;;;-3.76;100.00;96872.91;5044058;28;20064;-58
2022/03/08 02:03:26;;;;;;;29.85;17.58;;;;;;;-3.83;100.00;96864.53;5042795;28;20068;-60
2022/03/08 02:05:55;;;;;;;27.90;20.02;;;;;;;-3.71;100.00;96859.91;5045227;28;20091;-56
2022/03/08 02:08:23;;;;;;;30.55;17.35;;;;;;;-3.83;100.00;96861.94;5043519;28;20065;-55
2022/03/08 02:10:52;;;;;;;28.17;17.25;;;;;;;-3.75;100.00;96859.16;5046680;28;20080;-58
2022/03/08 02:13:20;;;;;;;28.63;17.58;;;;;;;-3.82;100.00;96860.19;5045150;28;20061;-57
2022/03/08 02:15:49;;;;;;;29.52;16.90;;;;;;;-3.88;100.00;96847.53;5044332;28;20068;-57
2022/03/08 02:18:20;;;;;;;30.45;17.60;;;;;;;-3.90;100.00;96847.56;5046038;28;20067;-59
2022/03/08 02:20:48;;;;;;;29.73;18.08;;;;;;;-3.88;100.00;96845.81;5043097;28;20079;-58
2022/03/08 02:23:18;;;;;;;28.92;17.85;;;;;;;-3.98;100.00;96851.28;5045114;28;20072;-54
2022/03/08 02:25:46;;;;;;;29.50;18.30;;;;;;;-3.89;100.00;96850.97;5044721;28;20096;-59
2022/03/08 02:28:15;;;;;;;24.33;16.92;;;;;;;-3.89;100.00;96849.28;5043913;28;20526;-57
2022/03/08 02:30:43;;;;;;;30.08;18.30;;;;;;;-3.91;100.00;96860.50;5046079;28;20068;-57
2022/03/08 02:33:11;;;;;;;29.83;17.25;;;;;;;-3.98;100.00;96861.59;5044401;28;20057;-54
2022/03/08 02:35:40;;;;;;;31.40;19.00;;;;;;;-3.90;100.00;96844.16;5044128;28;20066;-56
2022/03/08 02:38:08;;;;;;;31.33;17.73;;;;;;;-3.99;100.00;96844.44;5044971;28;20530;-57
2022/03/08 02:40:40;;;;;;;35.13;19.17;;;;;;;-3.90;100.00;96846.72;5043831;28;20079;-59
2022/03/08 02:43:11;;;;;;;32.75;19.30;;;;;;;-3.89;100.00;96844.13;5046072;28;20490;-57
2022/03/08 02:45:40;;;;;;;30.73;19.50;;;;;;;-3.91;100.00;96842.47;5042224;28;20168;-57
2022/03/08 02:48:09;;;;;;;31.27;18.23;;;;;;;-3.99;100.00;96837.56;5041127;28;20061;-59
2022/03/08 02:50:37;;;;;;;30.42;18.40;;;;;;;-4.03;100.00;96835.94;5044851;28;20079;-59
2022/03/08 02:53:06;;;;;;;29.08;17.73;;;;;;;-4.05;100.00;96837.75;5042345;28;20084;-58
2022/03/08 02:55:35;;;;;;;28.95;17.52;;;;;;;-4.10;100.00;96832.72;5044569;28;20088;-60
2022/03/08 02:58:06;;;;;;;33.25;19.45;;;;;;;-4.07;100.00;96834.38;5044718;28;20056;-57
2022/03/08 03:00:35;;;;;;;30.85;18.75;;;;;;;-4.04;100.00;96833.44;5044103;28;20060;-57
2022/03/08 03:03:04;;;;;;;30.02;17.75;;;;;;;-4.18;100.00;96834.69;5045065;28;20459;-57
2022/03/08 03:05:32;;;;;;;29.80;18.88;;;;;;;-4.13;100.00;96834.53;5047102;28;20063;-58
2022/03/08 03:08:01;;;;;;;29.60;18.63;;;;;;;-4.12;100.00;96826.78;5045437;28;20087;-55
2022/03/08 03:10:30;;;;;;;31.27;19.40;;;;;;;-4.19;100.00;96824.44;5047568;28;21460;-56
2022/03/08 03:12:58;;;;;;;31.73;18.58;;;;;;;-4.14;100.00;96827.72;5047542;28;20518;-59
2022/03/08 03:15:30;;;;;;;30.15;19.33;;;;;;;-4.13;100.00;96822.53;5045517;28;20037;-57
2022/03/08 03:17:58;;;;;;;32.03;18.98;;;;;;;-4.13;100.00;96822.53;5047285;28;20064;-58
2022/03/08 03:20:27;;;;;;;31.95;18.58;;;;;;;-4.15;100.00;96819.16;5046581;28;20073;-54
2022/03/08 03:22:55;;;;;;;32.78;18.85;;;;;;;-4.07;100.00;96821.47;5048300;28;20077;-59
2022/03/08 03:25:24;;;;;;;31.35;19.23;;;;;;;-4.14;100.00;96823.41;5046509;28;20076;-58
2022/03/08 03:27:52;;;;;;;28.92;18.13;;;;;;;-4.15;100.00;96814.00;5044085;28;21038;-58
2022/03/08 03:30:20;;;;;;;33.63;20.77;;;;;;;-4.10;100.00;96817.25;5047037;28;20073;-56
2022/03/08 03:32:50;;;;;;;32.67;20.23;;;;;;;-4.14;100.00;96820.81;5045689;28;20072;-59
2022/03/08 03:35:18;;;;;;;32.03;18.45;;;;;;;-4.13;100.00;96827.69;5048856;28;20373;-56
2022/03/08 03:37:46;;;;;;;32.50;18.70;;;;;;;-4.19;100.00;96820.13;5047009;28;20089;-57
2022/03/08 03:40:16;;;;;;;32.97;20.63;;;;;;;-4.18;100.00;96820.97;5043986;28;20065;-54
2022/03/08 03:42:44;;;;;;;30.60;18.57;;;;;;;-4.14;100.00;96819.97;5047025;28;20052;-55
2022/03/08 03:45:13;;;;;;;30.20;18.90;;;;;;;-4.14;100.00;96823.41;5045786;28;20069;-62
2022/03/08 03:47:41;;;;;;;34.60;20.48;;;;;;;-4.20;100.00;96820.16;5048577;28;20060;-57
2022/03/08 03:50:11;;;;;;;34.08;20.85;;;;;;;-4.31;100.00;96823.06;5043104;28;20092;-53
2022/03/08 03:52:40;;;;;;;29.85;18.90;;;;;;;-4.24;100.00;96814.25;5048594;28;20080;-60
2022/03/08 03:55:11;;;;;;;30.45;18.30;;;;;;;-4.19;100.00;96814.16;5047613;28;20631;-58
2022/03/08 03:57:40;;;;;;;31.73;18.02;;;;;;;-4.21;100.00;96816.75;5045149;28;20057;-56
2022/03/08 04:00:11;;;;;;;30.15;18.60;;;;;;;-4.22;100.00;96811.66;5047841;28;20064;-57
2022/03/08 04:02:39;;;;;;;30.85;19.25;;;;;;;-4.19;100.00;96817.56;5046661;28;20061;-57
2022/03/08 04:05:09;;;;;;;30.83;18.63;;;;;;;-4.21;100.00;96821.06;5046671;28;20455;-54
2022/03/08 04:07:39;;;;;;;29.83;18.58;;;;;;;-4.18;100.00;96823.56;5044438;28;20820;-57
2022/03/08 04:10:10;;;;;;;27.58;16.77;;;;;;;-4.36;100.00;96825.78;5045479;28;20491;-57
2022/03/08 04:12:38;;;;;;;30.85;18.58;;;;;;;-4.21;100.00;96826.22;5046018;28;20064;-55
2022/03/08 04:15:07;;;;;;;32.83;19.00;;;;;;;-4.19;100.00;96835.59;5044095;28;20419;-53
2022/03/08 04:17:36;;;;;;;27.50;17.02;;;;;;;-4.21;100.00;96832.19;5043347;28;20056;-59
2022/03/08 04:20:05;;;;;;;30.98;19.02;;;;;;;-4.25;100.00;96832.34;5049116;28;20076;-59
2022/03/08 04:22:33;;;;;;;27.55;17.35;;;;;;;-4.26;100.00;96838.41;5048566;28;20071;-55
2022/03/08 04:25:03;;;;;;;28.90;18.88;;;;;;;-4.23;100.00;96838.28;5039358;28;20128;-60
2022/03/08 04:27:31;;;;;;;32.33;19.73;;;;;;;-4.23;100.00;96836.56;5064525;28;20053;-61
2022/03/08 04:29:59;;;;;;;27.08;17.05;;;;;;;-4.17;100.00;96833.78;5044210;28;20068;-60
2022/03/08 04:32:27;;;;;;;31.25;17.05;;;;;;;-4.26;100.00;96835.81;5046522;28;20075;-59
2022/03/08 04:34:56;;;;;;;29.77;19.27;;;;;;;-4.31;100.00;96829.03;5045545;28;20068;-60
2022/03/08 04:37:24;;;;;;;29.25;17.77;;;;;;;-4.19;100.00;96827.03;5047891;28;20615;-59
2022/03/08 04:39:52;;;;;;;29.58;18.75;;;;;;;-4.26;100.00;96822.94;5041385;28;20061;-61
2022/03/08 04:42:22;;;;;;;30.58;17.38;;;;;;;-4.33;100.00;96830.84;5042588;28;20068;-60
2022/03/08 04:44:50;;;;;;;28.10;18.13;;;;;;;-4.32;100.00;96829.09;5039476;28;20455;-59
2022/03/08 04:47:19;;;;;;;36.97;18.58;;;;;;;-4.32;100.00;96826.53;5047754;28;20072;-57
2022/03/08 04:49:47;;;;;;;32.58;18.20;;;;;;;-4.20;100.00;96828.72;5045111;28;20071;-59
2022/03/08 04:52:16;;;;;;;32.05;20.02;;;;;;;-4.34;100.00;96824.00;5047235;28;20056;-58
2022/03/08 04:54:44;;;;;;;29.67;18.90;;;;;;;-4.29;100.00;96816.16;5045175;28;20055;-61
2022/03/08 04:57:12;;;;;;;33.15;19.15;;;;;;;-4.34;100.00;96824.00;5040482;28;20080;-58
2022/03/08 04:59:42;;;;;;;32.97;21.00;;;;;;;-4.42;100.00;96819.97;5045778;28;20063;-61
2022/03/08 05:02:10;;;;;;;28.77;18.00;;;;;;;-4.33;100.00;96822.28;5044059;28;20071;-58
2022/03/08 05:04:39;;;;;;;27.83;17.42;;;;;;;-4.40;100.00;96813.06;5046299;28;20548;-57
2022/03/08 05:07:07;;;;;;;28.13;19.15;;;;;;;-4.38;100.00;96819.81;5046966;28;20523;-60
2022/03/08 05:09:35;;;;;;;32.58;19.27;;;;;;;-4.37;100.00;96818.97;5041821;28;20069;-62
2022/03/08 05:12:05;;;;;;;28.00;17.52;;;;;;;-4.36;100.00;96819.78;5047828;28;20033;-57
2022/03/08 05:14:33;;;;;;;27.95;17.10;;;;;;;-4.43;100.00;96818.28;5041989;28;20056;-56
2022/03/08 05:17:04;;;;;;;29.92;18.20;;;;;;;-4.44;100.00;96826.88;5045580;28;20087;-53
2022/03/08 05:19:32;;;;;;;29.00;18.23;;;;;;;-4.38;100.00;96822.41;5025493;28;20099;-60
2022/03/08 05:22:01;;;;;;;32.53;18.02;;;;;;;-4.49;100.00;96818.47;5040872;28;20446;-58
2022/03/08 05:24:29;;;;;;;26.02;16.55;;;;;;;-4.48;100.00;96820.13;5039334;28;20614;-59
2022/03/08 05:26:57;;;;;;;27.45;17.02;;;;;;;-4.43;100.00;96819.13;5044118;28;20099;-50
2022/03/08 05:29:25;;;;;;;27.90;18.63;;;;;;;-4.44;100.00;96814.00;5044402;28;20535;-59
2022/03/08 05:31:53;;;;;;;30.13;19.30;;;;;;;-4.55;100.00;96822.88;5046281;28;20081;-57
2022/03/08 05:34:23;;;;;;;28.63;17.15;;;;;;;-4.54;100.00;96818.59;5042952;28;20070;-58
2022/03/08 05:36:51;;;;;;;31.70;19.63;;;;;;;-4.48;100.00;96826.13;5045841;28;20068;-59
2022/03/08 05:39:19;;;;;;;28.98;17.38;;;;;;;-4.35;100.00;96821.47;5045415;28;20462;-58
2022/03/08 05:41:48;;;;;;;31.33;19.58;;;;;;;-4.39;100.00;96817.31;5044644;28;20464;-60
2022/03/08 05:44:17;;;;;;;30.25;18.02;;;;;;;-4.36;100.00;96817.22;5046647;28;20471;-58
2022/03/08 05:46:45;;;;;;;28.70;17.48;;;;;;;-4.33;100.00;96823.13;5044635;28;20076;-60
2022/03/08 05:49:14;;;;;;;34.75;20.25;;;;;;;-4.21;100.00;96824.47;5046455;28;20126;-62
2022/03/08 05:51:43;;;;;;;31.20;18.48;;;;;;;-4.19;100.00;96821.88;5047006;28;20163;-61
2022/03/08 05:54:12;;;;;;;29.15;19.23;;;;;;;-4.15;100.00;96826.03;5042153;28;20708;-58
2022/03/08 05:56:40;;;;;;;28.83;17.77;;;;;;;-4.15;100.00;96829.44;5046780;28;20159;-59
2022/03/08 05:59:08;;;;;;;20.63;13.82;;;;;;;-4.08;100.00;96823.22;5045723;28;20095;-62
2022/03/08 06:01:36;;;;;;;31.48;18.08;;;;;;;-3.96;100.00;96829.72;5045452;28;20084;-60
2022/03/08 06:04:05;;;;;;;28.95;19.25;;;;;;;-4.00;100.00;96825.56;5046222;28;20063;-62
2022/03/08 06:06:33;;;;;;;30.83;19.25;;;;;;;-3.89;100.00;96830.38;5043647;28;20072;-60
2022/03/08 06:09:03;;;;;;;28.70;19.33;;;;;;;-3.91;100.00;96830.44;5046765;28;20118;-56
2022/03/08 06:11:31;;;;;;;31.13;19.73;;;;;;;-3.79;100.00;96830.94;5044715;28;20061;-58
2022/03/08 06:13:59;;;;;;;31.85;17.77;;;;;;;-3.83;100.00;96827.63;5044726;28;20451;-60
2022/03/08 06:16:27;;;;;;;27.15;17.23;;;;;;;-3.80;100.00;96824.09;5046505;28;20662;-61
2022/03/08 06:18:56;;;;;;;30.35;18.58;;;;;;;-3.68;100.00;96828.84;5045050;28;20105;-59
2022/03/08 06:21:24;;;;;;;32.15;19.30;;;;;;;-3.70;100.00;96828.06;5045552;28;20068;-61
2022/03/08 06:23:52;;;;;;;30.75;18.45;;;;;;;-3.62;100.00;96826.94;5046800;28;20092;-60
2022/03/08 06:26:22;;;;;;;32.72;19.85;;;;;;;-3.46;100.00;96823.88;5045558;28;20490;-61
2022/03/08 06:28:50;;;;;;;29.53;16.93;;;;;;;-3.44;100.00;96828.09;5046638;28;20443;-61
2022/03/08 06:31:18;;;;;;;29.35;19.08;;;;;;;-3.46;100.00;96827.28;5043218;28;20068;-61
2022/03/08 06:33:47;;;;;;;26.77;17.15;;;;;;;-3.49;100.00;96821.38;5045724;28;20463;-60
2022/03/08 06:36:15;;;;;;;31.30;19.95;;;;;;;-3.45;100.00;96816.06;5044938;28;20056;-58
2022/03/08 06:38:43;;;;;;;31.80;19.75;;;;;;;-3.42;100.00;96813.38;5043978;28;20069;-60
2022/03/08 06:41:12;;;;;;;30.80;18.15;;;;;;;-3.29;100.00;96826.72;5050841;28;20065;-60
2022/03/08 06:43:41;;;;;;;30.45;18.10;;;;;;;-3.41;100.00;96832.28;5048517;28;20068;-61
2022/03/08 06:46:10;;;;;;;27.88;17.92;;;;;;;-3.23;100.00;96817.94;5048500;28;20064;-59
2022/03/08 06:48:39;;;;;;;27.90;17.42;;;;;;;-3.18;100.00;96822.03;5051151;28;20076;-59
2022/03/08 06:51:07;;;;;;;27.58;17.45;;;;;;;-2.97;100.00;96828.19;5045508;28;20064;-57
2022/03/08 06:53:36;;;;;;;28.15;18.48;;;;;;;-3.01;100.00;96820.63;5049102;28;20065;-60
2022/03/08 06:56:04;;;;;;;29.30;18.52;;;;;;;-2.82;100.00;96819.09;5060269;28;20072;-59
2022/03/08 06:58:33;;;;;;;25.23;17.13;;;;;;;-2.65;100.00;96815.88;5047201;28;20470;-61
2022/03/08 07:01:02;;;;;;;30.25;15.73;;;;;;;-2.73;100.00;96820.50;5047159;28;20061;-61
2022/03/08 07:03:31;;;;;;;32.35;18.83;;;;;;;-2.39;100.00;96822.69;5048094;28;20093;-60
2022/03/08 07:05:59;;;;;;;26.67;17.65;;;;;;;-2.09;100.00;96819.88;5048868;28;20042;-58
2022/03/08 07:08:29;;;;;;;27.67;18.30;;;;;;;-2.08;100.00;96824.13;5049433;28;20061;-59
2022/03/08 07:10:57;;;;;;;28.75;17.35;;;;;;;-1.73;100.00;96826.19;5047870;28;20087;-60
2022/03/08 07:13:26;;;;;;;25.98;16.58;;;;;;;-1.45;100.00;96815.56;5050180;28;20068;-61
2022/03/08 07:15:54;;;;;;;28.30;18.08;;;;;;;-1.29;100.00;96807.19;5047004;28;20061;-58
2022/03/08 07:18:24;;;;;;;27.15;15.68;;;;;;;-1.17;100.00;96804.09;5048097;28;20076;-56
2022/03/08 07:20:52;;;;;;;26.45;16.83;;;;;;;-0.81;100.00;96806.00;5049430;28;20061;-62
2022/03/08 07:23:22;;;;;;;29.05;18.75;;;;;;;-0.72;100.00;96803.03;5046086;28;20061;-57
2022/03/08 07:25:50;;;;;;;23.13;14.35;;;;;;;-0.56;100.00;96809.19;5049171;28;20523;-57
2022/03/08 07:28:19;;;;;;;25.08;16.08;;;;;;;-0.21;100.00;96817.13;5047912;28;20065;-58
2022/03/08 07:31:00;;;;;;;25.00;16.02;;;;;;;-0.11;100.00;96809.78;5047143;28;20064;-62
2022/03/08 07:33:31;;;;;;;23.88;15.23;;;;;;;0.27;100.00;96810.56;5048900;28;20065;-60
2022/03/08 07:36:00;;;;;;;26.33;16.63;;;;;;;0.52;100.00;96805.06;5047634;28;20495;-60
2022/03/08 07:38:28;;;;;;;19.83;13.85;;;;;;;0.32;100.00;96805.19;5047712;28;20065;-58
2022/03/08 07:41:03;;;;;;;25.20;15.68;;;;;;;0.66;100.00;96809.59;5049753;28;20080;-58
2022/03/08 07:43:34;;;;;;;21.77;15.38;;;;;;;0.70;100.00;96814.53;5044492;28;20072;-60
2022/03/08 07:46:03;;;;;;;21.70;14.60;;;;;;;0.49;100.00;96810.41;5047151;28;20546;-53
2022/03/08 07:48:33;;;;;;;21.92;15.02;;;;;;;0.57;100.00;96813.44;5049476;28;20158;-56
2022/03/08 07:51:01;;;;;;;21.52;12.63;;;;;;;0.58;100.00;96809.09;5045907;28;20095;-60
2022/03/08 07:53:30;;;;;;;22.55;14.10;;;;;;;0.88;100.00;96817.13;5050444;28;20063;-58
2022/03/08 07:55:59;;;;;;;22.40;14.02;;;;;;;0.83;100.00;96816.53;5046974;28;20562;-60
2022/03/08 07:58:27;;;;;;;22.13;14.05;;;;;;;0.82;100.00;96820.88;5046682;28;20065;-52
2022/03/08 08:00:56;;;;;;;21.98;16.55;;;;;;;0.75;100.00;96818.66;5048529;28;20084;-59
2022/03/08 08:03:25;;;;;;;25.25;15.82;;;;;;;1.15;100.00;96820.94;5042316;28;20065;-54
2022/03/08 08:05:55;;;;;;;20.65;13.18;;;;;;;1.33;100.00;96813.13;5049247;28;20072;-61
2022/03/08 08:08:23;;;;;;;20.08;12.77;;;;;;;1.07;100.00;96810.13;5047548;28;20072;-55
2022/03/08 08:10:51;;;;;;;19.60;13.80;;;;;;;1.31;100.00;96814.97;5043016;28;20092;-56
2022/03/08 08:13:19;;;;;;;19.63;13.52;;;;;;;1.30;98.87;96816.72;5049546;28;20061;-53
2022/03/08 08:15:48;;;;;;;18.40;13.07;;;;;;;1.23;99.12;96811.91;5046027;28;20060;-60
2022/03/08 08:18:20;;;;;;;17.10;12.25;;;;;;;1.64;96.49;96814.94;5048055;28;20076;-58
2022/03/08 08:20:49;;;;;;;18.67;12.65;;;;;;;1.69;94.44;96812.97;5047784;28;20546;-57
2022/03/08 08:23:18;;;;;;;19.30;15.05;;;;;;;1.61;92.29;96815.94;5047179;28;20076;-60
2022/03/08 08:25:47;;;;;;;16.93;11.83;;;;;;;1.74;93.29;96810.13;5048797;28;20080;-59
2022/03/08 08:28:15;;;;;;;18.13;13.60;;;;;;;2.29;93.21;96817.50;5047372;28;20466;-56
2022/03/08 08:30:43;;;;;;;19.30;12.85;;;;;;;2.33;90.52;96816.41;5046817;28;20531;-60
2022/03/08 08:33:12;;;;;;;19.00;13.82;;;;;;;2.33;87.61;96812.03;5047225;28;20746;-58
2022/03/08 08:35:40;;;;;;;16.48;11.57;;;;;;;2.49;84.53;96814.63;5043457;28;20065;-56
2022/03/08 08:38:08;;;;;;;17.65;14.45;;;;;;;2.24;83.17;96814.34;5047114;28;20087;-62
2022/03/08 08:40:38;;;;;;;14.80;11.48;;;;;;;1.96;84.61;96817.59;5048235;28;20068;-60
2022/03/08 08:43:07;;;;;;;13.23;9.70;;;;;;;2.34;82.90;96812.88;5047963;28;20069;-61
2022/03/08 08:45:36;;;;;;;16.58;12.75;;;;;;;2.38;83.60;96814.41;5047113;28;20076;-58
2022/03/08 08:48:05;;;;;;;16.73;11.50;;;;;;;2.57;84.11;96809.84;5045298;28;20527;-58
2022/03/08 08:50:33;;;;;;;11.85;7.95;;;;;;;2.37;84.50;96803.16;5045051;28;20065;-54
2022/03/08 08:53:02;;;;;;;15.57;12.07;;;;;;;2.72;81.38;96805.53;5047113;28;20072;-50
2022/03/08 08:55:30;;;;;;;13.77;10.68;;;;;;;2.79;81.69;96801.66;5045967;28;20447;-58
2022/03/08 08:58:00;;;;;;;18.02;12.20;;;;;;;2.91;81.04;96807.06;5047908;28;20067;-52
2022/03/08 09:00:28;;;;;;;18.15;12.63;;;;;;;2.81;78.59;96810.19;5046008;28;20546;-60
2022/03/08 09:02:56;;;;;;;13.52;10.60;;;;;;;3.13;78.51;96804.03;5045803;28;20068;-59
2022/03/08 09:05:25;;;;;;;15.35;11.85;;;;;;;3.26;78.87;96800.63;5047078;28;20057;-58
2022/03/08 09:07:53;;;;;;;15.75;10.50;;;;;;;3.16;76.03;96801.25;5044889;28;20087;-57
2022/03/08 09:10:23;;;;;;;19.05;12.10;;;;;;;3.51;76.16;96793.91;5046698;28;20488;-59
2022/03/08 09:12:51;;;;;;;15.67;12.50;;;;;;;3.19;75.16;96799.31;5044799;28;20056;-55
2022/03/08 09:15:22;;;;;;;17.88;10.63;;;;;;;3.24;75.67;96796.44;5045019;28;20491;-61
2022/03/08 09:17:50;;;;;;;;;;;;;;;3.47;74.16;96784.63;5048007;28;20061;-61
2022/03/08 09:20:18;;;;;;;14.70;11.52;;;;;;;3.30;69.71;96791.72;5045239;28;20462;-53
2022/03/08 09:22:49;;;;;;;11.93;9.65;;;;;;;3.33;68.57;96788.06;5047687;28;20049;-56
2022/03/08 09:25:18;;;;;;;15.65;10.52;;;;;;;3.42;69.18;96790.13;5044722;28;20072;-60
2022/03/08 09:27:47;;;;;;;13.70;10.25;;;;;;;3.34;68.42;96789.75;5045812;28;20420;-58
2022/03/08 09:30:15;;;;;;;9.93;7.82;;;;;;;3.69;68.07;96789.38;5048184;28;20075;-56
2022/03/08 09:32:45;;;;;;;12.57;8.77;;;;;;;3.90;65.61;96789.81;5044439;28;20076;-61
2022/03/08 09:35:13;;;;;;;15.45;9.27;;;;;;;3.91;65.13;96794.09;5045948;28;20444;-61
2022/03/08 09:37:42;;;;;;;11.98;10.25;;;;;;;3.71;60.80;96787.50;5046788;28;20049;-62
2022/03/08 09:40:11;;;;;;;10.88;7.78;;;;;;;3.92;58.89;96800.97;5038620;28;20064;-61
2022/03/08 09:42:39;;;;;;;11.88;7.78;;;;;;;3.85;59.15;96792.69;5046854;28;20069;-51
2022/03/08 09:45:08;;;;;;;10.82;9.32;;;;;;;3.74;59.54;96793.38;5044377;28;20072;-57
2022/03/08 09:47:37;;;;;;;11.73;8.95;;;;;;;3.94;60.93;96788.69;5043917;28;20452;-57
2022/03/08 09:50:08;;;;;;;11.50;8.82;;;;;;;4.23;60.51;96787.72;5046659;28;20472;-60
2022/03/08 09:52:38;;;;;;;13.32;8.77;;;;;;;4.42;60.25;96786.53;5046378;28;20079;-58
2022/03/08 09:55:09;;;;;;;12.40;9.43;;;;;;;4.14;58.44;96774.41;5045951;28;20076;-59
2022/03/08 09:57:37;;;;;;;12.77;8.35;;;;;;;4.08;54.92;96770.41;5046247;28;20068;-53
2022/03/08 10:00:08;;;;;;;10.63;8.23;;;;;;;4.53;55.04;96778.81;5046101;28;20072;-62
2022/03/08 10:02:47;;;;;;;11.10;8.73;;;;;;;4.39;54.22;96774.50;5037632;28;20431;-60
2022/03/08 10:05:17;;;;;;;11.75;8.65;;;;;;;4.39;54.80;96787.53;5043816;28;20402;-57
2022/03/08 10:08:10;;;;;;;11.00;6.97;;;;;;;4.28;52.35;96790.84;5045848;28;20673;-61
2022/03/08 10:10:46;;;;;;;11.35;7.63;;;;;;;4.51;51.96;96772.88;5046129;28;20561;-58
2022/03/08 10:13:25;;;;;;;9.15;7.20;;;;;;;4.69;49.75;96766.44;5047075;28;20072;-54
2022/03/08 10:16:11;;;;;;;7.85;6.30;;;;;;;4.69;49.37;96782.13;5049608;28;20128;-56
2022/03/08 10:18:42;;;;;;;10.40;7.95;;;;;;;4.53;49.25;96786.66;5050292;28;20041;-61
2022/03/08 10:21:29;;;;;;;8.13;6.80;;;;;;;4.70;49.20;96780.34;5049783;28;20072;-59
2022/03/08 10:23:59;;;;;;;12.93;7.25;;;;;;;4.66;50.41;96776.25;5049580;28;20075;-61
2022/03/08 10:26:28;;;;;;;12.43;7.70;;;;;;;5.11;51.61;96779.38;5050340;28;20076;-62
2022/03/08 10:28:58;;;;;;;14.98;8.85;;;;;;;5.06;50.48;96773.59;5049662;28;20577;-61
2022/03/08 10:31:26;;;;;;;10.77;7.80;;;;;;;4.69;48.78;96768.22;5049549;28;20064;-57
2022/03/08 10:34:03;;;;;;;10.45;7.47;;;;;;;4.90;49.55;96772.03;5050262;28;20079;-53
2022/03/08 10:36:35;;;;;;;9.57;7.22;;;;;;;4.84;49.33;96767.19;5048677;28;20057;-61
2022/03/08 10:39:12;;;;;;;9.90;6.78;;;;;;;5.28;49.00;96763.38;5049844;28;20088;-55
2022/03/08 10:41:47;;;;;;;8.15;7.20;;;;;;;5.32;46.58;96767.44;5048895;28;20079;-59
2022/03/08 10:44:16;;;;;;;7.25;6.35;;;;;;;5.16;46.30;96772.03;5043222;28;20085;-49
2022/03/08 10:46:59;;;;;;;9.18;6.97;;;;;;;5.09;46.32;96783.84;5050843;28;20057;-60
2022/03/08 10:49:27;;;;;;;10.50;7.95;;;;;;;5.13;46.38;96788.78;5046940;28;20067;-54
2022/03/08 10:52:02;;;;;;;9.40;6.55;;;;;;;5.07;45.64;96777.91;5049065;28;20621;-56
2022/03/08 10:54:31;;;;;;;9.88;7.75;;;;;;;5.39;46.64;96773.94;5048338;28;20083;-57
2022/03/08 10:56:59;;;;;;;12.10;6.97;;;;;;;5.61;45.42;96775.06;5048524;28;20068;-58
2022/03/08 10:59:27;;;;;;;7.95;6.45;;;;;;;5.50;44.83;96777.59;5046712;28;20622;-61
2022/03/08 11:01:56;;;;;;;9.48;8.15;;;;;;;5.34;44.45;96780.44;5046989;28;20624;-52
2022/03/08 11:04:25;;;;;;;8.88;5.57;;;;;;;5.37;44.10;96788.09;5046058;28;20646;-55
2022/03/08 11:06:55;;;;;;;11.68;6.90;;;;;;;5.38;44.65;96784.50;5050598;28;20068;-53
2022/03/08 11:09:24;;;;;;;8.25;6.30;;;;;;;5.54;43.30;96786.91;5049684;28;20072;-58
2022/03/08 11:11:53;;;;;;;7.40;5.90;;;;;;;5.63;43.24;96781.88;5051126;28;20371;-55
2022/03/08 11:14:21;;;;;;;7.80;6.53;;;;;;;5.31;43.79;96771.03;5046403;28;20076;-56
2022/03/08 11:16:51;;;;;;;9.43;7.32;;;;;;;5.51;44.39;96777.50;5047999;28;20076;-56
2022/03/08 11:19:20;;;;;;;;;;;;;;;5.36;43.66;96773.31;5050352;28;20836;-52
2022/03/08 11:21:51;;;;;;;8.27;6.32;;;;;;;5.58;43.55;96773.53;5046656;28;19948;-56
2022/03/08 11:24:19;;;;;;;6.40;5.15;;;;;;;5.47;43.48;96770.78;5046692;28;20061;-61
2022/03/08 11:26:50;;;;;;;7.57;6.38;;;;;;;5.30;42.98;96779.81;5049675;28;20071;-57